Location:  
MeteoStar


Sort by weather type Sort by elevation Sort by visibility Sort from west to east north Sort from north to south Alphabetically Sort from strongest wind speed Sort from lowest to highest pressure Sort from highest to lowest dew point temperature Sort coolest temperatures to warmest Sort warm temperatures to coolest
 Metric

Current Observations for Iran, Islamic Republic of

Abadan14:54ZDust86 541.871007.1NW 21 Gusting to 31 849
Abadeh15:00ZPartly Cloudy74 2491004.5SSW 12 746574
Ahwaz15:00ZMostly Cloudy88 590.621006.0W 14 8765
Arak15:00ZDust67 4041007.5N 2 675643
Bam15:00ZPartly Cloudy92 3571001.9SW 8 883500
Bandar Lengeh15:00ZNot Avail.90 590.621006.1W 10 8945
Bandarabbass15:00ZNot Avail.90 6441006.2SW 8 9132
Birjand15:00ZPartly Cloudy84 232.51008.9SSE 23 814891
Bojnourd15:00ZMostly Cloudy75 5751012.1CALM753523
Bushehr Civ / Afb 15:00ZMostly Cloudy84 590.621006.8NW 4 8462
Chahbahar15:00ZHaze84 7441006.0W 4 9119
Esfahan15:00ZMostly Cloudy79 325WNW 6 795216
Fasa15:00ZNot Avail.82 1991006.2SW 6 804537
Gach Saran Du Gunbadan15:00ZNot Avail.86 2871009.1W 10 832421
Ghazvin14:52ZMostly Cloudy66 4841012.1NW 2 664192
Gorgan15:00ZMist64 611.871014.9WSW 10 64508
Iranshahr15:00ZPartly Cloudy99 3031005.2WNW 4 931938
Jask15:00ZNot Avail.86 7341005.1W 10 939
Kashan15:00ZMostly Cloudy87 4571004CALM843221
Kerman15:00ZPartly Cloudy77 274WSW 16 775734
Kermanshah15:00ZLight Showers55 5241017.0NW 12 554330
Khoy15:00ZCloudy64 5271008.2CALM643631
Mashhad15:00ZNot Avail.79 4871011.2ESE 4 793244
Masjed-Soleyman15:00ZMostly Cloudy92 3971005SSW 6 881220
Omidieh15:00ZCloudy92 5571007.9SW 6 9095
Orumieh15:00ZMostly Cloudy64 4671009.3SSE 8 644255
Ramsar15:00ZLight Rain63 5941015.1W 4 63-75
Rasht15:00ZLight Showers61 5951015.1NW 8 61-22
Sabzevar15:00ZThunder86 3671004.7N 12 833087
Saghez15:00ZCloudy62 3071011.9SSE 8 624898
Sanandaj15:00ZLight Showers55 482.51015.8E 4 554504
Semnan15:00ZMostly Cloudy86 3671002.2W 2 833841
Shahre-Kord15:00ZMostly Cloudy66 345W 10 666817
Shiraz15:00ZNot Avail.79 1891009.9W 12 794875
Tabas15:00ZMostly Cloudy97 3371001.5WNW 6 922329
Tabriz15:00ZMostly Cloudy66 5071011.9WSW 4 664484
Tehran-Mehrabad15:00ZPartly Cloudy79 2741007.6W 20 793950
Torbat-Heydarieh15:00ZPartly Cloudy79 3671005.7ESE 8 794373
Yazd15:00ZPartly Cloudy91 1841005.1SSE 6 874061
Zabol15:00ZNot Avail.93 4541004.8N 2 891604
Zahedan15:00ZPartly Cloudy88 3031008.6NNE 18 844494
Zanjan15:00ZThunder59 434ESE 12 595456

Atlantic
Tropical Watch